Time;durP1;ratioP1;P1;durP2;ratioP2;P2;SDS_P1;SDS_P2;PMS_P1;PMS_P2;Temp;Humidity;BMP_temperature;BMP_pressure;BME280_temperature;BME280_humidity;BME280_pressure;Samples;Min_cycle;Max_cycle;Signal;HPM_P1;HPM_P2
2022/10/24 00:01:55;;;;;;;3.97;1.60;;;;;;;12.43;91.09;99812.09;5115630;28;20036;-66
2022/10/24 00:04:24;;;;;;;2.97;2.50;;;;;;;12.43;91.25;99808.69;5115530;28;20069;-67
2022/10/24 00:06:52;;;;;;;1.17;1.08;;;;;;;12.40;91.08;99806.16;5115429;27;20051;-66
2022/10/24 00:09:22;;;;;;;2.22;1.55;;;;;;;12.31;91.10;99816.44;5115727;28;20036;-66
2022/10/24 00:11:52;;;;;;;2.67;2.33;;;;;;;12.24;90.94;99819.91;5115465;28;20047;-67
2022/10/24 00:14:21;;;;;;;1.65;1.55;;;;;;;12.23;90.86;99810.50;5113559;28;20040;-66
2022/10/24 00:16:49;;;;;;;2.00;1.80;;;;;;;12.26;90.98;99820.75;5114100;28;20039;-66
2022/10/24 00:19:18;;;;;;;1.48;1.40;;;;;;;12.29;91.22;99828.38;5115578;28;20284;-66
2022/10/24 00:21:48;;;;;;;4.53;2.13;;;;;;;12.30;90.89;99835.22;5115224;28;20039;-67
2022/10/24 00:24:17;;;;;;;2.67;2.45;;;;;;;12.31;91.27;99832.63;5115436;28;20069;-67
2022/10/24 00:26:47;;;;;;;4.85;1.92;;;;;;;12.32;91.12;99825.81;5115266;28;20043;-67
2022/10/24 00:29:17;;;;;;;1.30;1.20;;;;;;;12.32;91.04;99828.38;5115023;28;20067;-66
2022/10/24 00:31:46;;;;;;;2.20;1.00;;;;;;;12.31;91.19;99814.72;5115351;28;20042;-66
2022/10/24 00:34:14;;;;;;;1.17;1.05;;;;;;;12.31;91.26;99806.22;5114992;28;20039;-66
2022/10/24 00:36:43;;;;;;;0.68;0.68;;;;;;;12.31;91.51;99801.09;5115174;28;20043;-66
2022/10/24 00:39:12;;;;;;;2.25;1.58;;;;;;;12.32;91.55;99807.91;5115161;28;20470;-66
2022/10/24 00:41:42;;;;;;;1.23;1.13;;;;;;;12.33;91.86;99814.72;5114872;28;20032;-66
2022/10/24 00:44:22;;;;;;;2.40;1.80;;;;;;;12.29;91.28;99805.34;5114859;28;20077;-66
2022/10/24 00:46:54;;;;;;;1.90;1.58;;;;;;;12.31;91.38;99811.31;5115074;28;20075;-66
2022/10/24 00:49:27;;;;;;;1.40;1.20;;;;;;;12.30;91.40;99809.63;5114679;28;20044;-66
2022/10/24 00:52:02;;;;;;;3.80;1.52;;;;;;;12.32;91.63;99813.00;5114682;28;20043;-67
2022/10/24 00:54:31;;;;;;;2.78;2.20;;;;;;;12.30;91.59;99819.84;5114633;28;20039;-66
2022/10/24 00:57:06;;;;;;;0.70;0.70;;;;;;;12.30;91.37;99810.47;5114369;28;20494;-66
2022/10/24 00:59:40;;;;;;;2.25;2.05;;;;;;;12.30;91.70;99799.38;5114854;28;20048;-66
2022/10/24 01:02:09;;;;;;;2.70;1.63;;;;;;;12.29;91.76;99793.41;5114830;28;20050;-66
2022/10/24 01:04:37;;;;;;;2.30;2.10;;;;;;;12.30;91.74;99800.22;5114774;28;20067;-67
2022/10/24 01:07:19;;;;;;;1.38;1.20;;;;;;;12.32;91.75;99802.78;5114392;28;20043;-66
2022/10/24 01:10:12;;;;;;;2.35;2.03;;;;;;;12.32;91.67;99800.22;5114563;28;20048;-66
2022/10/24 01:12:59;;;;;;;1.50;1.27;;;;;;;12.32;91.68;99795.94;5114295;28;20035;-66
2022/10/24 01:15:40;;;;;;;0.70;0.70;;;;;;;12.30;91.58;99795.13;5114320;28;20047;-66
2022/10/24 01:18:14;;;;;;;2.92;1.95;;;;;;;12.30;91.55;99799.38;5114555;28;20054;-66
2022/10/24 01:20:58;;;;;;;1.63;1.52;;;;;;;12.32;91.76;99797.66;5114257;28;20036;-66
2022/10/24 01:23:50;;;;;;;2.63;1.45;;;;;;;12.31;91.56;99790.84;5114184;28;20051;-67
2022/10/24 01:26:48;;;;;;;1.48;1.35;;;;;;;12.31;91.67;99801.91;5113254;27;20051;-66
2022/10/24 01:29:24;;;;;;;2.22;1.88;;;;;;;12.27;91.48;99784.88;5108119;28;20047;-66
2022/10/24 01:31:59;;;;;;;1.52;1.42;;;;;;;12.33;91.65;99794.25;5114461;28;20071;-66
2022/10/24 01:34:32;;;;;;;1.08;0.98;;;;;;;12.35;91.60;99788.25;5114370;28;20387;-67
2022/10/24 01:37:06;;;;;;;2.00;1.73;;;;;;;12.34;91.37;99780.56;5114665;28;20049;-66
2022/10/24 01:39:40;;;;;;;1.10;1.00;;;;;;;12.32;91.66;99782.31;5114268;28;20491;-67
2022/10/24 01:42:12;;;;;;;4.70;1.88;;;;;;;12.33;91.24;99773.78;5114315;28;20047;-66
2022/10/24 01:44:47;;;;;;;3.10;2.22;;;;;;;12.31;91.65;99755.03;5113999;28;20046;-66
2022/10/24 01:47:22;;;;;;;2.42;1.75;;;;;;;12.31;91.52;99744.78;5114184;28;20404;-67
2022/10/24 01:49:56;;;;;;;1.15;1.05;;;;;;;12.30;91.78;99737.97;5114110;28;20027;-67
2022/10/24 01:52:29;;;;;;;1.20;1.10;;;;;;;12.27;91.38;99727.72;5114011;28;20066;-66
2022/10/24 01:54:58;;;;;;;3.78;2.63;;;;;;;12.24;91.65;99727.78;5113897;28;20052;-66
2022/10/24 01:57:28;;;;;;;1.38;1.27;;;;;;;12.23;91.53;99726.06;5113731;28;20052;-67
2022/10/24 01:59:56;;;;;;;3.20;1.75;;;;;;;12.16;91.45;99709.91;5114060;28;20048;-67
2022/10/24 02:02:31;;;;;;;1.27;1.17;;;;;;;12.13;91.36;99717.59;5114079;28;20405;-67
2022/10/24 02:05:06;;;;;;;2.08;1.80;;;;;;;12.08;91.51;99712.53;5114171;28;20385;-67
2022/10/24 02:07:38;;;;;;;1.67;1.45;;;;;;;12.05;91.34;99722.75;5114061;28;20130;-66
2022/10/24 02:10:12;;;;;;;1.48;1.33;;;;;;;12.09;91.49;99718.50;5113624;28;20089;-66
2022/10/24 02:12:47;;;;;;;1.42;1.15;;;;;;;12.12;91.32;99722.75;5113734;28;20054;-67
2022/10/24 02:15:24;;;;;;;3.55;1.20;;;;;;;12.14;91.34;99721.00;5113981;28;20066;-67
2022/10/24 02:17:56;;;;;;;2.83;2.17;;;;;;;12.17;91.56;99718.41;5113760;28;20052;-66
2022/10/24 02:20:30;;;;;;;1.30;1.20;;;;;;;12.20;91.39;99715.84;5113615;28;20050;-66
2022/10/24 02:23:06;;;;;;;2.92;1.85;;;;;;;12.21;91.38;99727.78;5113664;28;20104;-66
2022/10/24 02:25:37;;;;;;;1.98;1.48;;;;;;;12.17;91.59;99718.41;5113921;28;20043;-66
2022/10/24 02:28:11;;;;;;;1.05;0.95;;;;;;;12.22;91.63;99714.13;5113851;28;20039;-67
2022/10/24 02:30:45;;;;;;;1.77;1.67;;;;;;;12.23;91.71;99726.91;5113502;28;20098;-66
2022/10/24 02:33:17;;;;;;;1.42;1.27;;;;;;;12.25;91.60;99734.56;5113566;28;20513;-67
2022/10/24 02:35:48;;;;;;;1.25;1.15;;;;;;;12.29;91.84;99726.00;5113772;28;20075;-67
2022/10/24 02:38:22;;;;;;;0.60;0.60;;;;;;;12.30;91.90;99723.47;5115567;28;20485;-67
2022/10/24 02:40:54;;;;;;;1.65;1.48;;;;;;;12.31;92.01;99719.19;5117268;28;20105;-66
2022/10/24 02:43:23;;;;;;;2.15;1.95;;;;;;;12.33;91.85;99709.78;5117155;28;20043;-67
2022/10/24 02:45:55;;;;;;;7.82;2.45;;;;;;;12.35;92.13;99700.38;5117137;28;20046;-67
2022/10/24 02:48:30;;;;;;;1.08;0.98;;;;;;;12.39;92.33;99707.16;5117103;28;20047;-66
2022/10/24 02:51:00;;;;;;;3.15;1.52;;;;;;;12.39;92.38;99714.84;5117221;28;20062;-66
2022/10/24 02:53:28;;;;;;;;;;;;;;;12.39;92.20;99715.72;5117310;28;20043;-67
2022/10/24 02:55:57;;;;;;;3.40;2.97;;;;;;;12.40;92.24;99717.41;5116888;28;19919;-67
2022/10/24 02:58:26;;;;;;;2.03;1.70;;;;;;;12.39;92.68;99728.50;5116695;28;20100;-66
2022/10/24 03:00:54;;;;;;;1.95;1.45;;;;;;;12.37;92.35;99722.56;5116816;28;20048;-67
2022/10/24 03:03:25;;;;;;;2.08;1.70;;;;;;;12.35;92.27;99716.59;5116721;28;20047;-66
2022/10/24 03:05:53;;;;;;;1.38;1.27;;;;;;;12.35;92.48;99713.19;5117043;28;20066;-67
2022/10/24 03:08:26;;;;;;;1.52;1.42;;;;;;;12.32;92.42;99718.31;5116676;28;20040;-67
2022/10/24 03:10:57;;;;;;;1.50;1.20;;;;;;;12.31;92.54;99714.91;5116662;28;20050;-66
2022/10/24 03:13:25;;;;;;;1.02;0.85;;;;;;;12.28;92.12;99717.50;5116817;28;20050;-66
2022/10/24 03:15:54;;;;;;;1.50;1.40;;;;;;;12.21;92.12;99712.44;5116849;28;20032;-66
2022/10/24 03:18:24;;;;;;;0.65;0.65;;;;;;;12.23;92.08;99726.06;5116464;28;20039;-66
2022/10/24 03:20:53;;;;;;;4.00;1.75;;;;;;;12.24;91.96;99722.66;5116498;28;20043;-66
2022/10/24 03:23:22;;;;;;;1.02;0.98;;;;;;;12.28;92.33;99724.34;5116308;28;20066;-66
2022/10/24 03:25:50;;;;;;;0.73;0.70;;;;;;;12.31;92.18;99730.25;5116363;28;20038;-67
2022/10/24 03:28:19;;;;;;;1.40;1.30;;;;;;;12.35;92.35;99731.09;5116330;28;20283;-67
2022/10/24 03:30:48;;;;;;;3.15;2.08;;;;;;;12.37;92.49;99719.13;5116506;28;20044;-67
2022/10/24 03:33:16;;;;;;;3.45;2.17;;;;;;;12.37;92.10;99724.25;5116118;28;20044;-67
2022/10/24 03:35:47;;;;;;;3.35;1.45;;;;;;;12.48;92.29;99735.25;5116521;28;20047;-66
2022/10/24 03:38:15;;;;;;;2.03;1.80;;;;;;;12.52;92.73;99731.84;5116182;28;20048;-66
2022/10/24 03:40:44;;;;;;;1.30;1.20;;;;;;;12.56;92.56;99733.50;5116448;28;20041;-66
2022/10/24 03:43:18;;;;;;;1.02;0.93;;;;;;;12.58;92.47;99734.31;5116040;28;20042;-67
2022/10/24 03:45:47;;;;;;;1.52;1.20;;;;;;;12.64;92.79;99739.41;5115979;28;20056;-66
2022/10/24 03:48:16;;;;;;;2.78;1.67;;;;;;;12.66;92.78;99732.56;5116232;28;20032;-66
2022/10/24 03:50:46;;;;;;;1.70;1.33;;;;;;;12.68;92.79;99741.06;5115100;28;20040;-67
2022/10/24 03:53:15;;;;;;;1.63;1.35;;;;;;;12.69;92.86;99738.50;5116421;28;20043;-66
2022/10/24 03:55:43;;;;;;;1.58;1.48;;;;;;;12.70;92.98;99739.34;5115947;28;20409;-67
2022/10/24 03:58:12;;;;;;;1.27;1.00;;;;;;;12.70;93.23;99740.22;5115396;28;20485;-66
2022/10/24 04:00:41;;;;;;;3.00;1.30;;;;;;;12.70;93.12;99764.97;5115674;28;20512;-66
2022/10/24 04:03:10;;;;;;;1.52;1.42;;;;;;;12.74;93.09;99784.59;5115638;28;20048;-67
2022/10/24 04:05:39;;;;;;;1.40;1.03;;;;;;;12.75;92.92;99817.00;5115556;28;20039;-67
2022/10/24 04:08:09;;;;;;;2.35;1.13;;;;;;;12.76;93.17;99831.50;5115493;28;20122;-67
2022/10/24 04:10:38;;;;;;;1.45;1.13;;;;;;;12.78;93.28;99819.53;5115419;28;20048;-66
2022/10/24 04:13:07;;;;;;;1.90;1.77;;;;;;;12.79;93.32;99816.97;5115480;28;20525;-67
2022/10/24 04:16:00;;;;;;;2.00;1.85;;;;;;;12.83;93.07;99828.03;5115579;28;20406;-66
2022/10/24 04:18:30;;;;;;;1.23;1.10;;;;;;;12.84;93.31;99842.53;5115562;28;20093;-67
2022/10/24 04:21:07;;;;;;;1.85;1.70;;;;;;;12.83;93.29;99843.41;5115273;27;20040;-66
2022/10/24 04:23:40;;;;;;;2.65;2.13;;;;;;;12.84;93.47;99839.97;5115523;27;20065;-66
2022/10/24 04:26:19;;;;;;;3.60;2.45;;;;;;;12.87;93.51;99855.31;5115104;28;20152;-67
2022/10/24 04:29:13;;;;;;;2.95;2.10;;;;;;;12.92;93.50;99858.72;5115324;28;20390;-67
2022/10/24 04:31:42;;;;;;;1.73;1.63;;;;;;;12.93;93.22;99850.19;5114876;28;20067;-67
2022/10/24 04:34:11;;;;;;;2.08;1.88;;;;;;;12.93;93.42;99855.31;5115334;28;20031;-67
2022/10/24 04:36:41;;;;;;;1.50;1.40;;;;;;;12.86;93.54;99843.38;5114892;28;20059;-67
2022/10/24 04:39:11;;;;;;;1.73;1.63;;;;;;;12.95;93.60;99856.13;5114872;28;20044;-67
2022/10/24 04:41:40;;;;;;;2.45;1.92;;;;;;;12.93;93.48;99855.31;5115478;28;20040;-67
2022/10/24 04:44:08;;;;;;;2.35;2.15;;;;;;;12.77;93.24;99830.63;5114800;28;20040;-67
2022/10/24 04:47:04;;;;;;;2.05;1.83;;;;;;;12.71;93.57;99852.03;5114584;28;20059;-67
2022/10/24 04:49:35;;;;;;;3.00;1.73;;;;;;;12.60;93.02;99855.50;5114672;28;20044;-67
2022/10/24 04:52:04;;;;;;;3.13;1.65;;;;;;;12.50;93.27;99869.25;5114928;28;20386;-67
2022/10/24 04:54:59;;;;;;;4.45;1.65;;;;;;;12.40;93.48;99862.47;5114862;28;20118;-65
2022/10/24 04:57:28;;;;;;;22.80;2.03;;;;;;;12.36;93.03;99850.50;5114260;28;20044;-67
2022/10/24 04:59:56;;;;;;;1.35;1.25;;;;;;;12.36;93.37;99840.28;5114782;28;20103;-67
2022/10/24 05:02:25;;;;;;;4.13;1.42;;;;;;;12.40;93.50;99829.19;5114338;28;20047;-67
2022/10/24 05:04:54;;;;;;;1.65;1.25;;;;;;;12.45;93.68;99814.66;5114427;28;20040;-67
2022/10/24 05:07:22;;;;;;;1.42;1.33;;;;;;;12.51;93.59;99794.13;5114324;28;20097;-67
2022/10/24 05:09:51;;;;;;;2.40;1.65;;;;;;;12.54;93.43;99809.47;5114351;28;20043;-66
2022/10/24 05:12:49;;;;;;;1.15;1.08;;;;;;;12.59;93.55;99817.97;5113075;28;20043;-67
2022/10/24 05:15:24;;;;;;;1.23;1.10;;;;;;;12.61;93.30;99811.97;5114335;28;20517;-67
2022/10/24 05:17:53;;;;;;;2.67;1.65;;;;;;;12.66;93.62;99809.38;5114233;28;20046;-67
2022/10/24 05:20:44;;;;;;;3.15;1.10;;;;;;;12.72;93.65;99817.88;5114292;28;20047;-67
2022/10/24 05:23:13;;;;;;;1.40;1.30;;;;;;;12.78;93.49;99819.53;5114235;28;20044;-67
2022/10/24 05:25:41;;;;;;;1.20;1.10;;;;;;;12.82;93.42;99810.97;5114163;28;20036;-67
2022/10/24 05:28:17;;;;;;;1.17;1.08;;;;;;;12.84;93.62;99804.13;5114022;28;20079;-67
2022/10/24 05:30:49;;;;;;;2.40;1.42;;;;;;;12.87;93.41;99798.13;5114103;28;20126;-67
2022/10/24 05:33:18;;;;;;;2.10;1.27;;;;;;;12.88;93.38;99790.44;5113971;28;20130;-66
2022/10/24 05:35:48;;;;;;;0.68;0.68;;;;;;;12.92;93.33;99794.66;5114015;28;20052;-67
2022/10/24 05:38:17;;;;;;;2.92;2.53;;;;;;;12.95;93.37;99802.34;5114007;28;20504;-67
2022/10/24 05:40:48;;;;;;;;;;;;;;;12.95;93.34;99802.34;5113375;28;20047;-66
2022/10/24 05:43:19;;;;;;;0.85;0.85;;;;;;;12.96;93.66;99803.16;5114313;28;20002;-67
2022/10/24 05:45:50;;;;;;;4.72;1.45;;;;;;;12.98;93.37;99807.41;5114287;28;20051;-67
2022/10/24 05:48:24;;;;;;;2.50;2.17;;;;;;;13.00;93.51;99810.84;5113904;28;20039;-67
2022/10/24 05:50:57;;;;;;;4.50;2.05;;;;;;;13.04;93.54;99811.63;5114217;28;20031;-67
2022/10/24 05:53:26;;;;;;;2.25;1.67;;;;;;;13.05;93.19;99811.63;5113927;28;20044;-67
2022/10/24 05:55:55;;;;;;;4.88;1.95;;;;;;;13.09;93.43;99813.34;5113864;28;20046;-68
2022/10/24 05:58:26;;;;;;;2.08;1.90;;;;;;;13.10;93.05;99802.22;5113623;28;20051;-67
2022/10/24 06:00:55;;;;;;;3.95;2.10;;;;;;;13.10;93.04;99796.25;5113806;28;20055;-67
2022/10/24 06:03:49;;;;;;;2.35;1.90;;;;;;;13.06;92.72;99805.66;5113727;28;20043;-67
2022/10/24 06:06:18;;;;;;;3.33;1.63;;;;;;;13.10;93.08;99809.06;5114060;28;20393;-67
2022/10/24 06:08:46;;;;;;;1.50;1.38;;;;;;;13.17;93.07;99813.28;5113679;28;20050;-67
2022/10/24 06:11:19;;;;;;;1.67;1.40;;;;;;;13.24;93.02;99826.03;5114027;28;20435;-67
2022/10/24 06:13:49;;;;;;;3.55;2.85;;;;;;;13.30;93.17;99831.09;5116686;28;20438;-67
2022/10/24 06:16:17;;;;;;;1.23;1.13;;;;;;;13.38;92.72;99823.31;5117797;28;20055;-67
2022/10/24 06:18:46;;;;;;;2.00;1.88;;;;;;;13.44;92.95;99829.22;5117943;28;20066;-67
2022/10/24 06:21:15;;;;;;;1.75;1.27;;;;;;;13.53;92.32;99822.31;5117620;28;20040;-67
2022/10/24 06:23:44;;;;;;;1.92;1.02;;;;;;;13.56;92.53;99827.41;5117523;27;20047;-67
2022/10/24 06:26:13;;;;;;;0.82;0.80;;;;;;;13.57;92.34;99829.09;5117718;27;20497;-67
2022/10/24 06:28:42;;;;;;;3.00;2.07;;;;;;;13.60;92.12;99829.09;5116366;28;20431;-67
2022/10/24 06:31:13;;;;;;;0.93;0.90;;;;;;;13.61;91.71;99841.03;5117365;28;20043;-67
2022/10/24 06:33:41;;;;;;;4.70;1.88;;;;;;;13.64;91.83;99846.13;5117433;28;20085;-67
2022/10/24 06:36:11;;;;;;;1.70;1.60;;;;;;;13.65;91.74;99858.09;5117260;28;20036;-67
2022/10/24 06:38:39;;;;;;;;;;;;;;;13.66;91.82;99852.09;5117955;28;20050;-67
2022/10/24 06:41:10;;;;;;;1.70;1.33;;;;;;;13.64;91.24;99846.13;5117444;28;19924;-67
2022/10/24 06:43:40;;;;;;;1.13;0.98;;;;;;;13.66;91.61;99841.81;5102787;28;20578;-67
2022/10/24 06:46:14;;;;;;;1.42;1.33;;;;;;;13.68;91.05;99842.66;5113661;28;20051;-67
2022/10/24 06:48:44;;;;;;;3.22;1.98;;;;;;;13.69;91.48;99854.63;5117502;28;20070;-67
2022/10/24 06:51:16;;;;;;;1.17;1.08;;;;;;;13.74;90.98;99860.56;5117308;28;20134;-67
2022/10/24 06:53:44;;;;;;;1.58;1.23;;;;;;;13.82;91.13;99856.22;5116952;27;20119;-67
2022/10/24 06:56:13;;;;;;;1.95;1.35;;;;;;;13.95;91.13;99862.88;5117152;28;20036;-67
2022/10/24 06:58:42;;;;;;;0.50;0.50;;;;;;;14.08;91.19;99861.88;5116712;28;20052;-68
2022/10/24 07:01:14;;;;;;;1.27;1.17;;;;;;;14.21;90.93;99855.72;5117063;28;20036;-68
2022/10/24 07:03:44;;;;;;;2.33;2.13;;;;;;;14.29;90.86;99848.78;5115690;28;20048;-68
2022/10/24 07:06:17;;;;;;;1.15;1.05;;;;;;;14.33;90.44;99845.31;5099166;28;20040;-68
2022/10/24 07:08:46;;;;;;;1.75;1.58;;;;;;;14.36;90.28;99840.16;5096539;28;20113;-67
2022/10/24 07:11:15;;;;;;;1.47;1.10;;;;;;;14.38;89.84;99848.69;5096458;28;20534;-68
2022/10/24 07:13:43;;;;;;;1.65;1.20;;;;;;;14.42;89.43;99849.50;5096245;28;20277;-67
2022/10/24 07:16:14;;;;;;;4.00;2.13;;;;;;;14.35;89.69;99827.34;5096159;28;20044;-68
2022/10/24 07:18:43;;;;;;;1.98;1.25;;;;;;;14.50;89.65;99858.78;5096359;28;20048;-68
2022/10/24 07:21:16;;;;;;;1.33;1.23;;;;;;;14.53;89.18;99863.91;5096092;28;20047;-68
2022/10/24 07:23:44;;;;;;;1.80;1.70;;;;;;;14.57;89.07;99875.81;5096253;28;20052;-68
2022/10/24 07:26:15;;;;;;;3.63;2.10;;;;;;;14.59;88.78;99856.09;5095811;28;20047;-66
2022/10/24 07:28:46;;;;;;;4.32;2.13;;;;;;;14.64;88.67;99851.75;5096257;28;20044;-68
2022/10/24 07:31:18;;;;;;;1.40;1.30;;;;;;;14.67;88.65;99835.44;5098909;28;20465;-68
2022/10/24 07:33:46;;;;;;;4.45;1.55;;;;;;;14.68;88.77;99843.09;5095895;28;20115;-68
2022/10/24 07:36:18;;;;;;;1.05;0.93;;;;;;;14.69;88.57;99839.69;5102952;28;20512;-68
2022/10/24 07:38:48;;;;;;;1.58;1.10;;;;;;;14.73;88.61;99841.31;5108249;28;20048;-68
2022/10/24 07:41:17;;;;;;;1.73;1.63;;;;;;;14.80;87.88;99833.53;5095611;28;20036;-68
2022/10/24 07:43:46;;;;;;;6.25;3.33;;;;;;;14.90;88.08;99832.53;5113135;28;20047;-68
2022/10/24 07:46:17;;;;;;;1.08;0.90;;;;;;;15.04;87.99;99846.00;5108055;28;20040;-68
2022/10/24 07:48:49;;;;;;;2.47;1.63;;;;;;;15.21;87.45;99844.00;5095479;28;20044;-68
2022/10/24 07:51:19;;;;;;;2.17;1.40;;;;;;;15.35;87.28;99842.03;5095728;28;20048;-68
2022/10/24 07:53:48;;;;;;;2.60;1.50;;;;;;;15.48;86.82;99843.53;5095322;28;20044;-68
2022/10/24 07:56:18;;;;;;;1.67;1.50;;;;;;;15.63;86.48;99843.28;5095399;28;20485;-68
2022/10/24 07:58:47;;;;;;;;;;;;;;;15.74;85.85;99836.19;5095852;28;20067;-68
2022/10/24 08:01:18;;;;;;;0.60;0.60;;;;;;;15.83;85.08;99830.88;5095497;28;19943;-68
2022/10/24 08:03:49;;;;;;;1.65;1.55;;;;;;;15.98;84.58;99833.13;5095846;28;20036;-68
2022/10/24 08:06:41;;;;;;;1.08;0.98;;;;;;;16.10;83.95;99829.44;5095419;28;20036;-68
2022/10/24 08:09:12;;;;;;;1.25;1.10;;;;;;;16.19;83.35;99823.28;5095155;28;20097;-68
2022/10/24 08:11:41;;;;;;;0.85;0.80;;;;;;;16.17;82.79;99819.91;5095371;28;20141;-68
2022/10/24 08:14:11;;;;;;;2.22;2.03;;;;;;;16.16;82.49;99821.63;5105098;27;20048;-68
2022/10/24 08:16:41;;;;;;;1.35;1.25;;;;;;;16.18;82.19;99822.44;5094975;28;20050;-68
2022/10/24 08:19:40;;;;;;;5.97;1.67;;;;;;;16.23;82.25;99814.59;5107060;28;20032;-68
2022/10/24 08:22:37;;;;;;;1.58;1.48;;;;;;;16.34;82.18;99817.81;5115709;28;20048;-68
2022/10/24 08:25:10;;;;;;;2.33;1.77;;;;;;;16.35;81.66;99815.19;5115573;28;20086;-67
2022/10/24 08:27:38;;;;;;;1.73;1.13;;;;;;;16.40;81.46;99826.25;5115089;28;20035;-68
2022/10/24 08:30:10;;;;;;;2.45;1.63;;;;;;;16.47;81.36;99814.06;5114282;28;20054;-68
2022/10/24 08:32:38;;;;;;;1.52;1.15;;;;;;;16.53;80.98;99804.50;5115386;28;20046;-68
2022/10/24 08:35:10;;;;;;;0.85;0.85;;;;;;;16.63;80.60;99811.13;5114442;28;20035;-68
2022/10/24 08:37:39;;;;;;;1.50;1.40;;;;;;;16.67;80.53;99811.94;5114907;28;20048;-67
2022/10/24 08:40:11;;;;;;;4.83;1.73;;;;;;;16.70;79.87;99780.91;5112913;28;20059;-67
2022/10/24 08:42:40;;;;;;;2.35;1.27;;;;;;;16.89;79.66;99787.34;5103353;28;20054;-67
2022/10/24 08:45:17;;;;;;;2.58;2.00;;;;;;;16.93;79.30;99783.78;5105497;28;20036;-67
2022/10/24 08:47:54;;;;;;;3.85;2.22;;;;;;;16.95;78.77;99771.69;5115053;28;20051;-68
2022/10/24 08:50:29;;;;;;;0.65;0.65;;;;;;;17.01;78.63;99778.44;5105617;28;20044;-67
2022/10/24 08:53:04;;;;;;;;;;;;;;;17.11;78.48;99779.88;5094936;28;20044;-68
2022/10/24 08:55:40;;;;;;;2.25;2.05;;;;;;;17.05;78.42;99773.16;5094551;28;20023;-67
2022/10/24 08:58:24;;;;;;;2.20;2.00;;;;;;;17.19;78.36;99780.53;5094085;28;20067;-68
2022/10/24 09:00:57;;;;;;;1.42;1.33;;;;;;;17.29;78.42;99775.09;5093972;28;20055;-68
2022/10/24 09:03:37;;;;;;;2.10;1.77;;;;;;;17.44;78.32;99759.19;5094054;28;20052;-68
2022/10/24 09:06:33;;;;;;;2.42;1.90;;;;;;;17.37;77.40;99754.28;5093887;28;20043;-68
2022/10/24 09:09:12;;;;;;;1.77;1.63;;;;;;;17.26;77.57;99764.00;5092892;28;20492;-68
2022/10/24 09:11:51;;;;;;;2.42;1.52;;;;;;;17.10;77.57;99760.16;5093842;28;20044;-68
2022/10/24 09:14:22;;;;;;;1.70;1.55;;;;;;;17.07;78.11;99763.66;5093361;28;20044;-68
2022/10/24 09:17:06;;;;;;;1.92;1.10;;;;;;;17.09;78.02;99758.44;5093767;28;20060;-68
2022/10/24 09:19:51;;;;;;;1.25;1.10;;;;;;;17.14;78.22;99766.91;5093802;28;20109;-68
2022/10/24 09:22:56;;;;;;;5.13;1.92;;;;;;;17.18;78.30;99768.53;5093792;28;20074;-68
2022/10/24 09:25:56;;;;;;;1.60;1.50;;;;;;;17.24;78.48;99764.06;5093823;28;20043;-68
2022/10/24 09:28:50;;;;;;;1.27;1.15;;;;;;;17.40;78.87;99770.50;5093885;28;20428;-67
2022/10/24 09:32:16;;;;;;;9.90;1.83;;;;;;;17.57;78.54;99756.31;5094002;28;20113;-68
2022/10/24 09:34:53;;;;;;;4.30;1.40;;;;;;;17.59;78.46;99755.38;5094398;28;20338;-68
2022/10/24 09:37:55;;;;;;;1.40;1.30;;;;;;;17.65;78.54;99749.22;5093906;28;20112;-68
2022/10/24 09:40:30;;;;;;;1.48;1.33;;;;;;;17.70;78.52;99744.75;5093492;28;20044;-68
2022/10/24 09:43:33;;;;;;;3.03;1.83;;;;;;;17.72;78.73;99750.72;5093577;28;20569;-69
2022/10/24 09:46:07;;;;;;;2.40;1.67;;;;;;;17.77;78.67;99759.19;5093892;28;20052;-68
2022/10/24 09:48:52;;;;;;;2.72;2.22;;;;;;;17.73;78.62;99762.75;5096583;28;20048;-68
2022/10/24 09:51:50;;;;;;;1.98;1.63;;;;;;;17.71;78.99;99759.34;5097803;28;20048;-68
2022/10/24 09:54:28;;;;;;;3.60;1.98;;;;;;;17.61;79.20;99748.44;5097648;28;20044;-68
2022/10/24 09:57:22;;;;;;;1.00;0.90;;;;;;;17.70;79.44;99760.25;5097428;28;20054;-68
2022/10/24 10:00:05;;;;;;;1.13;0.93;;;;;;;17.71;79.42;99760.19;5097595;28;20094;-68
2022/10/24 10:02:39;;;;;;;1.70;1.60;;;;;;;17.70;79.47;99747.34;5097502;28;20051;-68
2022/10/24 10:05:47;;;;;;;1.45;1.27;;;;;;;17.72;79.55;99735.22;5097820;28;20127;-68
2022/10/24 10:08:24;;;;;;;4.63;1.63;;;;;;;17.76;79.70;99736.81;5097804;28;20071;-68
2022/10/24 10:11:01;;;;;;;3.70;1.67;;;;;;;17.79;79.99;99741.91;5097736;28;20375;-68
2022/10/24 10:13:44;;;;;;;3.08;1.48;;;;;;;17.77;79.78;99734.22;5096480;28;20490;-68
2022/10/24 10:16:29;;;;;;;7.15;3.15;;;;;;;17.80;79.82;99748.78;5097258;28;20051;-68
2022/10/24 10:19:04;;;;;;;1.00;0.90;;;;;;;17.78;79.84;99746.22;5096206;28;20508;-69
2022/10/24 10:22:00;;;;;;;2.70;1.75;;;;;;;17.69;79.79;99741.34;5097028;28;20047;-69
2022/10/24 10:24:39;;;;;;;1.33;1.23;;;;;;;17.68;80.24;99746.56;5096961;28;20059;-68
2022/10/24 10:27:31;;;;;;;1.45;1.17;;;;;;;17.65;80.29;99749.22;5096533;28;20048;-68
2022/10/24 10:30:25;;;;;;;2.33;1.63;;;;;;;17.62;80.56;99764.78;5097125;28;20032;-68
2022/10/24 10:33:46;;;;;;;12.57;2.97;;;;;;;17.59;80.87;99754.56;5097014;28;20059;-68
2022/10/24 10:36:22;;;;;;;2.35;2.15;;;;;;;17.54;80.91;99762.41;5097121;28;20574;-68
2022/10/24 10:39:29;;;;;;;2.00;1.80;;;;;;;17.54;81.20;99766.75;5096773;28;20048;-69
2022/10/24 10:42:11;;;;;;;2.30;1.88;;;;;;;17.54;81.39;99764.16;5096566;28;20055;-68
2022/10/24 10:45:07;;;;;;;2.55;2.05;;;;;;;17.53;81.59;99770.19;5096808;28;20040;-68
2022/10/24 10:47:50;;;;;;;1.70;1.52;;;;;;;17.49;81.63;99763.41;5096607;28;20048;-69
2022/10/24 10:50:28;;;;;;;2.58;2.20;;;;;;;17.52;81.93;99774.50;5096978;28;20052;-69
2022/10/24 10:53:11;;;;;;;1.58;1.48;;;;;;;17.55;82.18;99764.09;5096605;28;20109;-67
2022/10/24 10:55:47;;;;;;;2.90;2.35;;;;;;;17.57;82.28;99756.31;5106741;28;20051;-67
2022/10/24 10:58:30;;;;;;;3.85;2.03;;;;;;;17.56;82.40;99764.97;5097145;28;20075;-69
2022/10/24 11:01:12;;;;;;;4.00;2.47;;;;;;;17.58;82.48;99758.00;5096492;28;20402;-68
2022/10/24 11:03:51;;;;;;;1.67;1.52;;;;;;;17.57;82.68;99771.78;5096292;28;20064;-68
2022/10/24 11:06:34;;;;;;;2.78;2.10;;;;;;;17.53;82.73;99762.47;5096439;28;20075;-68
2022/10/24 11:09:23;;;;;;;2.38;1.70;;;;;;;17.51;82.79;99764.22;5096625;28;20121;-68
2022/10/24 11:11:59;;;;;;;3.78;2.08;;;;;;;17.48;82.92;99764.28;5096288;28;20393;-68
2022/10/24 11:14:35;;;;;;;2.85;1.60;;;;;;;17.44;82.82;99761.78;5096208;28;20044;-68
2022/10/24 11:17:19;;;;;;;2.35;1.90;;;;;;;17.41;82.91;99768.78;5096109;28;20060;-68
2022/10/24 11:20:05;;;;;;;10.95;2.70;;;;;;;17.39;82.97;99773.13;5095661;28;20071;-68
2022/10/24 11:22:38;;;;;;;6.30;2.85;;;;;;;17.38;83.33;99767.13;5104875;28;20043;-68
2022/10/24 11:25:21;;;;;;;2.78;2.15;;;;;;;17.40;82.83;99764.47;5096917;27;20082;-68
2022/10/24 11:28:20;;;;;;;5.57;3.47;;;;;;;17.43;83.12;99773.00;5094998;28;20045;-68
2022/10/24 11:30:56;;;;;;;2.70;2.42;;;;;;;17.42;83.27;99773.88;5095906;28;20047;-69
2022/10/24 11:33:36;;;;;;;14.82;3.13;;;;;;;17.45;82.99;99772.94;5096020;28;20040;-68
2022/10/24 11:36:14;;;;;;;2.08;1.88;;;;;;;17.43;83.16;99775.59;5105385;28;20040;-69
2022/10/24 11:38:58;;;;;;;3.13;2.33;;;;;;;17.42;83.25;99771.31;5101195;28;20578;-68
2022/10/24 11:41:37;;;;;;;10.05;4.53;;;;;;;17.40;83.15;99767.91;5095508;28;20131;-68
2022/10/24 11:44:41;;;;;;;3.47;1.60;;;;;;;17.37;83.24;99770.56;5095703;28;20417;-68
2022/10/24 11:47:38;;;;;;;2.15;1.73;;;;;;;17.39;83.15;99779.16;5095531;28;20064;-69
2022/10/24 11:50:16;;;;;;;1.55;1.42;;;;;;;17.36;83.09;99778.38;5095697;28;20040;-69
2022/10/24 11:52:52;;;;;;;3.10;2.05;;;;;;;17.32;83.29;99777.59;5095698;28;20105;-68
2022/10/24 11:55:27;;;;;;;2.50;2.15;;;;;;;17.34;83.28;99770.69;5095642;28;20040;-68
2022/10/24 11:58:00;;;;;;;2.28;1.80;;;;;;;17.27;83.22;99752.81;5095116;28;20135;-68
2022/10/24 12:00:34;;;;;;;2.97;1.88;;;;;;;17.34;83.30;99762.09;5098818;28;20040;-69
2022/10/24 12:03:29;;;;;;;2.05;1.85;;;;;;;17.35;83.11;99777.50;5109398;28;20047;-68
2022/10/24 12:06:26;;;;;;;2.15;1.85;;;;;;;17.35;83.28;99781.81;5115602;28;20066;-67
2022/10/24 12:09:18;;;;;;;8.55;2.42;;;;;;;17.31;83.18;99775.91;5097408;28;20047;-69
2022/10/24 12:12:10;;;;;;;4.40;3.67;;;;;;;17.24;83.16;99779.53;5094633;28;20446;-68
2022/10/24 12:14:58;;;;;;;2.08;1.92;;;;;;;17.21;83.31;99774.44;5101377;28;20040;-68